Time;durP1;ratioP1;P1;durP2;ratioP2;P2;SDS_P1;SDS_P2;PMS_P1;PMS_P2;Temp;Humidity;BMP_temperature;BMP_pressure;BME280_temperature;BME280_humidity;BME280_pressure;Samples;Min_cycle;Max_cycle;Signal;HPM_P1;HPM_P2
2022/09/13 00:01:36;;;;;;;35.08;17.40;;;16.50;99.90;;;;;;5063061;28;20041;-74
2022/09/13 00:04:03;;;;;;;27.77;17.65;;;16.50;99.90;;;;;;5045225;28;20047;-75
2022/09/13 00:06:28;;;;;;;26.60;16.30;;;16.30;99.90;;;;;;5044461;28;20274;-75
2022/09/13 00:08:54;;;;;;;32.75;17.83;;;16.40;99.90;;;;;;5048008;28;20442;-75
2022/09/13 00:11:23;;;;;;;33.10;18.10;;;16.30;99.90;;;;;;5044836;28;20412;-72
2022/09/13 00:13:50;;;;;;;39.58;18.65;;;16.30;99.90;;;;;;5043777;28;20407;-70
2022/09/13 00:16:17;;;;;;;40.78;19.98;;;16.30;99.90;;;;;;5052469;28;20037;-70
2022/09/13 00:18:43;;;;;;;39.88;21.25;;;16.30;99.90;;;;;;5045306;28;20078;-69
2022/09/13 00:21:12;;;;;;;34.97;19.45;;;16.30;99.90;;;;;;5042843;28;20044;-70
2022/09/13 00:23:40;;;;;;;29.17;18.42;;;16.40;99.90;;;;;;5039433;28;20045;-70
2022/09/13 00:26:10;;;;;;;40.58;20.92;;;16.20;99.90;;;;;;5041769;28;20120;-69
2022/09/13 00:28:36;;;;;;;37.83;19.75;;;16.50;99.90;;;;;;5049054;28;20540;-70
2022/09/13 00:31:03;;;;;;;39.75;21.38;;;16.20;99.90;;;;;;5055128;28;20037;-69
2022/09/13 00:33:29;;;;;;;40.90;22.52;;;16.20;99.90;;;;;;5057856;28;20067;-70
2022/09/13 00:35:55;;;;;;;35.35;20.02;;;16.50;99.90;;;;;;5042519;28;20483;-69
2022/09/13 00:38:20;;;;;;;37.00;19.90;;;16.30;99.90;;;;;;5043876;28;20132;-69
2022/09/13 00:40:46;;;;;;;41.28;21.92;;;16.40;99.90;;;;;;5045102;28;20135;-69
2022/09/13 00:43:20;;;;;;;43.92;22.70;;;16.30;99.90;;;;;;5050347;28;20135;-69
2022/09/13 00:45:47;;;;;;;40.83;21.60;;;16.30;99.90;;;;;;5043103;28;20071;-69
2022/09/13 00:48:20;;;;;;;51.17;25.27;;;16.60;99.90;;;;;;5047687;28;20055;-69
2022/09/13 00:50:52;;;;;;;56.83;25.77;;;16.40;99.90;;;;;;5046021;28;20463;-70
2022/09/13 00:53:35;;;;;;;58.28;26.50;;;16.50;99.90;;;;;;5042603;28;20043;-70
2022/09/13 00:56:03;;;;;;;46.42;25.65;;;16.40;99.90;;;;;;5047515;28;20045;-70
2022/09/13 00:58:32;;;;;;;48.63;26.35;;;16.50;99.90;;;;;;5044738;28;20491;-70
2022/09/13 01:00:59;;;;;;;49.45;26.38;;;16.60;99.90;;;;;;5043023;28;20044;-70
2022/09/13 01:03:29;;;;;;;42.75;25.13;;;16.60;99.90;;;;;;5056141;28;20048;-70
2022/09/13 01:06:08;;;;;;;51.97;28.13;;;16.60;99.90;;;;;;5042862;28;20060;-69
2022/09/13 01:08:36;;;;;;;55.10;28.27;;;16.40;99.90;;;;;;5044609;28;20416;-69
2022/09/13 01:11:05;;;;;;;54.00;27.85;;;16.40;99.90;;;;;;5046951;28;20045;-69
2022/09/13 01:13:32;;;;;;;60.58;29.55;;;16.60;99.90;;;;;;5045606;28;20052;-70
2022/09/13 01:15:59;;;;;;;67.60;31.92;;;16.60;99.90;;;;;;5039645;28;20037;-70
2022/09/13 01:18:25;;;;;;;68.50;33.63;;;16.60;99.90;;;;;;5040183;28;20564;-70
2022/09/13 01:21:16;;;;;;;65.95;32.30;;;16.60;99.90;;;;;;5062235;28;20080;-69
2022/09/13 01:24:15;;;;;;;48.53;28.35;;;16.50;99.90;;;;;;5043128;28;20131;-70
2022/09/13 01:27:11;;;;;;;76.32;33.47;;;16.50;99.90;;;;;;5062691;28;20037;-70
2022/09/13 01:29:42;;;;;;;55.72;29.50;;;16.50;99.90;;;;;;5064686;28;20718;-70
2022/09/13 01:32:36;;;;;;;55.10;29.20;;;16.70;99.90;;;;;;5051167;28;20044;-70
2022/09/13 01:35:26;;;;;;;57.92;30.13;;;16.70;99.90;;;;;;5051074;28;20040;-69
2022/09/13 01:38:17;;;;;;;67.13;30.75;;;16.50;99.90;;;;;;5046561;28;20120;-69
2022/09/13 01:41:16;;;;;;;69.90;31.73;;;16.60;99.90;;;;;;5052006;28;20044;-70
2022/09/13 01:44:20;;;;;;;55.95;29.38;;;16.50;99.90;;;;;;5045602;28;20395;-70
2022/09/13 01:47:24;;;;;;;83.97;33.95;;;16.60;99.90;;;;;;5045795;28;20028;-69
2022/09/13 01:50:38;;;;;;;73.35;34.80;;;16.70;99.90;;;;;;5056572;28;20037;-69
2022/09/13 01:53:24;;;;;;;91.70;36.08;;;16.80;99.90;;;;;;5052151;28;20049;-69
2022/09/13 01:55:55;;;;;;;75.80;34.55;;;16.60;99.90;;;;;;5041517;28;20123;-69
2022/09/13 01:58:54;;;;;;;107.95;38.70;;;16.60;99.90;;;;;;5063490;28;20569;-69
2022/09/13 02:01:37;;;;;;;101.35;37.67;;;16.80;99.90;;;;;;5056510;28;20450;-69
2022/09/13 02:04:16;;;;;;;109.90;38.72;;;16.80;99.90;;;;;;5039533;28;20041;-69
2022/09/13 02:07:01;;;;;;;94.57;38.33;;;16.80;99.90;;;;;;5064684;28;20037;-69
2022/09/13 02:09:33;;;;;;;101.35;39.03;;;16.60;99.90;;;;;;5042100;28;20037;-69
2022/09/13 02:12:07;;;;;;;115.47;40.42;;;16.70;99.90;;;;;;5043566;28;20099;-69
2022/09/13 02:14:38;;;;;;;93.32;39.33;;;16.60;99.90;;;;;;5044570;28;20079;-69
2022/09/13 02:17:21;;;;;;;92.65;38.92;;;16.80;99.90;;;;;;5047432;28;20051;-69
2022/09/13 02:20:04;;;;;;;89.32;39.65;;;16.90;99.90;;;;;;5044176;28;20048;-69
2022/09/13 02:22:34;;;;;;;94.47;39.67;;;16.60;99.90;;;;;;5037668;28;20056;-69
2022/09/13 02:25:06;;;;;;;87.45;37.63;;;16.80;99.90;;;;;;5042208;28;20040;-69
2022/09/13 02:27:32;;;;;;;;;;;16.90;99.90;;;;;;5049704;28;20033;-70
2022/09/13 02:30:06;;;;;;;76.57;34.83;;;16.90;99.90;;;;;;5061092;28;19927;-70
2022/09/13 02:32:42;;;;;;;77.05;35.45;;;16.90;99.90;;;;;;5050510;28;20548;-71
2022/09/13 02:35:19;;;;;;;58.30;30.48;;;17.00;99.90;;;;;;5053528;28;20033;-70
2022/09/13 02:37:51;;;;;;;59.33;31.30;;;16.90;99.90;;;;;;5037908;28;20063;-70
2022/09/13 02:40:24;;;;;;;62.42;32.38;;;16.90;99.90;;;;;;5059890;28;20106;-71
2022/09/13 02:43:00;;;;;;;55.92;29.60;;;16.70;99.90;;;;;;5043131;28;20040;-70
2022/09/13 02:45:32;;;;;;;48.17;26.25;;;16.90;99.90;;;;;;5058562;28;20380;-71
2022/09/13 02:48:09;;;;;;;;;;;16.80;99.90;;;;;;5060283;28;20174;-70
2022/09/13 02:50:53;;;;;;;51.53;26.50;;;17.00;99.90;;;;;;5041869;28;19916;-71
2022/09/13 02:53:31;;;;;;;59.55;28.58;;;17.10;99.90;;;;;;5062804;28;20048;-70
2022/09/13 02:56:24;;;;;;;54.00;27.35;;;17.10;99.90;;;;;;5055818;28;20048;-71
2022/09/13 02:58:50;;;;;;;;;;;17.10;99.90;;;;;;5047153;28;20072;-70
2022/09/13 03:01:15;;;;;;;48.10;24.88;;;16.90;99.90;;;;;;5046720;28;19917;-71
2022/09/13 03:03:41;;;;;;;46.55;26.17;;;16.90;99.90;;;;;;5050009;28;20379;-70
2022/09/13 03:06:07;;;;;;;61.85;27.92;;;17.10;99.90;;;;;;5046764;28;20044;-70
2022/09/13 03:08:34;;;;;;;54.15;28.33;;;17.20;99.90;;;;;;5044339;28;20041;-70
2022/09/13 03:11:12;;;;;;;52.42;28.77;;;17.10;99.90;;;;;;5045107;28;20067;-69
2022/09/13 03:13:55;;;;;;;61.30;29.88;;;17.20;99.90;;;;;;5048940;28;21021;-70
2022/09/13 03:16:59;;;;;;;66.35;30.20;;;17.20;99.90;;;;;;5049156;28;20048;-69
2022/09/13 03:19:51;;;;;;;57.38;28.40;;;16.90;99.90;;;;;;5052434;28;20052;-70
2022/09/13 03:22:35;;;;;;;56.40;28.92;;;16.90;99.90;;;;;;5031015;28;20044;-70
2022/09/13 03:25:11;;;;;;;59.65;28.33;;;17.20;99.90;;;;;;5048173;28;20045;-70
2022/09/13 03:27:55;;;;;;;62.17;28.02;;;16.90;99.90;;;;;;5048594;28;20028;-70
2022/09/13 03:30:21;;;;;;;59.92;28.27;;;17.20;99.90;;;;;;5068643;28;20037;-70
2022/09/13 03:33:06;;;;;;;54.45;26.77;;;16.90;99.90;;;;;;5055886;28;20040;-70
2022/09/13 03:36:05;;;;;;;63.10;29.00;;;17.10;99.90;;;;;;5057792;28;20431;-70
2022/09/13 03:38:43;;;;;;;60.70;27.52;;;17.20;99.90;;;;;;5070228;28;20048;-69
2022/09/13 03:41:14;;;;;;;60.38;27.58;;;17.20;99.90;;;;;;5041061;28;20162;-70
2022/09/13 03:43:46;;;;;;;49.88;25.90;;;17.10;99.90;;;;;;5055656;28;20137;-70
2022/09/13 03:46:29;;;;;;;55.20;26.00;;;16.90;99.90;;;;;;5058001;28;20048;-70
2022/09/13 03:48:59;;;;;;;55.45;26.90;;;17.20;99.90;;;;;;5060980;28;20049;-71
2022/09/13 03:51:26;;;;;;;46.72;24.30;;;17.10;99.90;;;;;;5056943;28;20460;-71
2022/09/13 03:53:57;;;;;;;52.72;25.98;;;16.90;99.90;;;;;;5058473;28;20044;-72
2022/09/13 03:56:23;;;;;;;48.38;25.48;;;16.90;99.90;;;;;;5056900;28;20424;-72
2022/09/13 03:58:49;;;;;;;54.95;26.60;;;17.00;99.90;;;;;;5052585;28;20044;-72
2022/09/13 04:01:22;;;;;;;48.15;26.00;;;16.90;99.90;;;;;;5066282;28;20140;-73
2022/09/13 04:03:48;;;;;;;48.60;24.80;;;17.10;99.90;;;;;;5048772;28;20040;-73
2022/09/13 04:06:13;;;;;;;49.03;24.73;;;17.20;99.90;;;;;;5049786;28;21092;-73
2022/09/13 04:08:39;;;;;;;48.55;26.00;;;17.20;99.90;;;;;;5051023;28;20079;-72
2022/09/13 04:11:04;;;;;;;56.42;26.63;;;17.30;99.90;;;;;;5059397;28;20540;-72
2022/09/13 04:13:30;;;;;;;58.40;27.05;;;17.10;99.90;;;;;;5057117;28;20040;-73
2022/09/13 04:16:03;;;;;;;53.50;26.55;;;17.00;99.90;;;;;;5055883;28;20124;-73
2022/09/13 04:18:29;;;;;;;54.03;26.23;;;17.10;99.90;;;;;;5053024;28;20060;-73
2022/09/13 04:20:57;;;;;;;50.38;25.83;;;17.10;99.90;;;;;;5055167;28;20135;-74
2022/09/13 04:23:23;;;;;;;47.72;25.45;;;17.20;99.90;;;;;;5056986;28;20047;-73
2022/09/13 04:25:52;;;;;;;54.33;25.98;;;17.30;99.90;;;;;;5054033;28;20423;-72
2022/09/13 04:28:18;;;;;;;47.50;23.77;;;17.30;99.90;;;;;;5057518;28;20032;-72
2022/09/13 04:30:45;;;;;;;48.63;25.95;;;17.10;99.90;;;;;;5053884;28;20029;-72
2022/09/13 04:33:11;;;;;;;42.88;25.05;;;17.10;99.90;;;;;;5045280;28;20037;-72
2022/09/13 04:35:38;;;;;;;49.45;24.98;;;17.20;99.90;;;;;;5048423;28;20442;-72
2022/09/13 04:38:04;;;;;;;47.08;25.02;;;17.10;99.90;;;;;;5052428;28;20131;-71
2022/09/13 04:40:30;;;;;;;50.03;24.35;;;17.30;99.90;;;;;;5052695;28;20155;-72
2022/09/13 04:42:56;;;;;;;47.92;24.45;;;17.00;99.90;;;;;;5049835;28;20408;-73
2022/09/13 04:45:22;;;;;;;50.70;25.83;;;17.00;99.90;;;;;;5058506;28;20168;-71
2022/09/13 04:47:55;;;;;;;46.85;25.30;;;17.00;99.90;;;;;;5054628;28;20049;-72
2022/09/13 04:50:22;;;;;;;42.88;23.98;;;17.30;99.90;;;;;;5059468;28;20033;-72
2022/09/13 04:52:48;;;;;;;41.00;23.08;;;17.30;99.90;;;;;;5052729;28;20387;-71
2022/09/13 04:55:14;;;;;;;41.78;21.92;;;17.10;99.90;;;;;;5055771;28;20037;-70
2022/09/13 04:57:40;;;;;;;40.22;21.35;;;17.30;99.90;;;;;;5058487;28;20040;-73
2022/09/13 05:00:07;;;;;;;33.50;17.98;;;17.10;99.90;;;;;;5054288;28;20067;-72
2022/09/13 05:02:32;;;;;;;33.65;17.88;;;17.40;99.90;;;;;;5042972;28;20037;-69
2022/09/13 05:04:58;;;;;;;37.03;20.27;;;17.50;99.90;;;;;;5049338;28;20047;-68
2022/09/13 05:07:24;;;;;;;41.47;21.83;;;17.30;99.90;;;;;;5056200;28;20037;-69
2022/09/13 05:09:49;;;;;;;37.60;21.65;;;17.60;99.90;;;;;;5047745;28;20048;-69
2022/09/13 05:12:15;;;;;;;36.65;21.20;;;17.30;99.90;;;;;;5043442;28;20132;-69
2022/09/13 05:14:40;;;;;;;38.08;20.45;;;17.30;99.90;;;;;;5041056;28;20037;-69
2022/09/13 05:17:06;;;;;;;34.65;19.25;;;17.40;99.90;;;;;;5058383;28;20048;-69
2022/09/13 05:19:32;;;;;;;38.25;18.10;;;17.30;99.90;;;;;;5046743;28;20041;-70
2022/09/13 05:21:57;;;;;;;25.77;16.23;;;17.30;99.90;;;;;;5047662;28;20483;-71
2022/09/13 05:24:23;;;;;;;26.42;14.10;;;17.30;99.90;;;;;;5040894;28;20127;-70
2022/09/13 05:26:48;;;;;;;23.23;12.75;;;17.60;99.90;;;;;;5044598;28;20032;-72
2022/09/13 05:29:14;;;;;;;21.85;12.95;;;17.50;99.90;;;;;;5047462;28;20040;-69
2022/09/13 05:31:42;;;;;;;20.90;13.35;;;17.60;99.90;;;;;;5041609;28;20075;-71
2022/09/13 05:34:13;;;;;;;12.50;8.73;;;17.60;99.90;;;;;;5038496;28;20595;-71
2022/09/13 05:36:39;;;;;;;15.77;8.65;;;17.30;99.90;;;;;;5040169;28;20738;-71
2022/09/13 05:39:06;;;;;;;19.50;8.85;;;17.30;99.90;;;;;;5043068;28;20033;-70
2022/09/13 05:41:32;;;;;;;13.68;8.50;;;17.40;99.90;;;;;;5057244;28;20648;-73
2022/09/13 05:43:58;;;;;;;17.40;8.73;;;17.60;99.90;;;;;;5042394;28;20033;-72
2022/09/13 05:46:23;;;;;;;16.25;8.38;;;17.60;99.90;;;;;;5056274;28;20040;-72
2022/09/13 05:48:49;;;;;;;13.40;7.35;;;17.40;99.90;;;;;;5043233;28;20479;-70
2022/09/13 05:51:16;;;;;;;10.25;6.10;;;17.40;99.90;;;;;;5037816;28;20140;-73
2022/09/13 05:53:44;;;;;;;11.07;6.10;;;17.40;99.90;;;;;;5049325;28;20487;-71
2022/09/13 05:56:15;;;;;;;11.13;5.45;;;17.40;99.90;;;;;;5043223;28;20041;-72
2022/09/13 05:58:43;;;;;;;7.83;4.97;;;17.50;99.90;;;;;;5057297;28;20387;-70
2022/09/13 06:01:10;;;;;;;11.23;4.82;;;17.20;99.90;;;;;;5053677;28;20398;-71
2022/09/13 06:03:36;;;;;;;12.45;4.35;;;17.30;99.90;;;;;;5048246;28;20049;-72
2022/09/13 06:06:03;;;;;;;8.55;3.78;;;17.30;99.90;;;;;;5051911;28;20041;-71
2022/09/13 06:08:30;;;;;;;7.20;3.75;;;17.30;99.90;;;;;;5074297;28;20052;-71
2022/09/13 06:11:07;;;;;;;9.95;4.00;;;17.40;99.90;;;;;;5054972;28;20032;-72
2022/09/13 06:13:33;;;;;;;8.02;4.10;;;17.40;99.90;;;;;;5056575;28;20063;-71
2022/09/13 06:16:00;;;;;;;8.77;3.47;;;17.50;99.90;;;;;;5054996;28;20500;-71
2022/09/13 06:18:26;;;;;;;4.93;2.85;;;17.40;99.90;;;;;;5067631;28;20061;-71
2022/09/13 06:21:07;;;;;;;5.85;3.05;;;17.30;99.90;;;;;;5066696;28;20059;-71
2022/09/13 06:23:33;;;;;;;7.85;3.25;;;17.40;99.90;;;;;;5053136;28;20399;-70
2022/09/13 06:26:09;;;;;;;7.10;3.45;;;17.30;99.90;;;;;;5055860;28;20036;-70
2022/09/13 06:28:35;;;;;;;8.77;2.78;;;17.20;99.90;;;;;;5058963;28;20436;-71
2022/09/13 06:31:07;;;;;;;9.05;3.38;;;17.20;99.90;;;;;;5058573;28;20558;-70
2022/09/13 06:33:34;;;;;;;8.18;3.20;;;17.20;99.90;;;;;;5061639;28;20047;-71
2022/09/13 06:36:01;;;;;;;7.22;3.47;;;17.30;99.90;;;;;;5052927;28;20072;-75
2022/09/13 06:38:27;;;;;;;7.57;3.42;;;17.20;99.90;;;;;;5064259;28;20040;-73
2022/09/13 06:41:01;;;;;;;15.38;3.80;;;17.30;99.90;;;;;;5060128;28;20032;-74
2022/09/13 06:43:27;;;;;;;7.40;3.90;;;17.20;99.90;;;;;;5055673;28;20124;-71
2022/09/13 06:45:52;;;;;;;7.57;3.22;;;17.10;99.90;;;;;;5050839;28;20742;-73
2022/09/13 06:48:18;;;;;;;8.38;3.45;;;17.30;99.90;;;;;;5067093;28;20041;-73
2022/09/13 06:50:44;;;;;;;10.48;3.58;;;17.20;99.90;;;;;;5049961;28;20040;-71
2022/09/13 06:53:11;;;;;;;6.80;3.45;;;17.00;99.90;;;;;;5048602;28;20032;-72
2022/09/13 06:55:37;;;;;;;7.85;3.42;;;17.10;99.90;;;;;;5051926;28;20059;-76
2022/09/13 06:58:02;;;;;;;10.80;3.50;;;17.20;99.90;;;;;;5050099;28;20033;-74
2022/09/13 07:00:28;;;;;;;7.95;3.70;;;17.30;99.90;;;;;;5056879;28;20403;-74
2022/09/13 07:02:53;;;;;;;10.43;4.30;;;17.10;99.90;;;;;;5056857;28;20396;-76
2022/09/13 07:05:19;;;;;;;10.55;4.00;;;17.30;99.90;;;;;;5042619;28;20036;-73
2022/09/13 07:07:46;;;;;;;8.77;3.97;;;17.20;99.90;;;;;;5070434;28;20487;-74
2022/09/13 07:10:12;;;;;;;10.02;4.35;;;17.20;99.90;;;;;;5050494;28;20040;-71
2022/09/13 07:12:40;;;;;;;11.63;4.10;;;17.30;99.90;;;;;;5053803;28;20118;-73
2022/09/13 07:15:06;;;;;;;15.80;4.00;;;17.40;99.90;;;;;;5036227;28;20064;-76
2022/09/13 07:17:32;;;;;;;11.40;4.20;;;17.20;99.90;;;;;;5050070;28;20033;-75
2022/09/13 07:19:57;;;;;;;11.07;4.57;;;17.40;99.90;;;;;;5049398;28;20041;-75
2022/09/13 07:22:25;;;;;;;10.10;4.30;;;17.20;99.90;;;;;;5050981;28;20110;-76
2022/09/13 07:24:51;;;;;;;10.38;4.38;;;17.40;99.90;;;;;;5063914;28;20462;-75
2022/09/13 07:27:17;;;;;;;7.90;4.25;;;17.30;99.90;;;;;;5048976;28;20136;-75
2022/09/13 07:29:42;;;;;;;14.00;4.68;;;17.40;99.90;;;;;;5049705;28;20487;-74
2022/09/13 07:32:08;;;;;;;18.15;4.55;;;17.40;99.90;;;;;;5041593;28;20407;-75
2022/09/13 07:34:34;;;;;;;12.57;5.00;;;17.40;99.90;;;;;;5051201;28;20037;-71
2022/09/13 07:37:00;;;;;;;8.85;4.50;;;17.60;99.90;;;;;;5055226;28;20041;-71
2022/09/13 07:39:25;;;;;;;8.20;4.72;;;17.50;99.90;;;;;;5050345;28;20151;-76
2022/09/13 07:41:52;;;;;;;10.63;4.63;;;17.60;99.90;;;;;;5031560;28;20067;-70
2022/09/13 07:44:18;;;;;;;9.45;5.05;;;17.60;99.90;;;;;;5037060;28;20048;-73
2022/09/13 07:46:44;;;;;;;9.18;5.15;;;17.50;99.90;;;;;;5050210;28;20043;-72
2022/09/13 07:49:12;;;;;;;9.10;4.70;;;17.50;99.90;;;;;;5049539;28;20025;-71
2022/09/13 07:51:39;;;;;;;8.40;4.45;;;17.70;99.90;;;;;;5037500;28;20040;-72
2022/09/13 07:54:09;;;;;;;8.82;4.55;;;17.90;99.90;;;;;;5051066;28;20047;-78
2022/09/13 07:56:36;;;;;;;10.25;4.53;;;17.90;99.90;;;;;;5051849;28;20048;-73
2022/09/13 07:59:05;;;;;;;6.40;4.18;;;18.00;99.90;;;;;;5045087;28;20106;-73
2022/09/13 08:01:43;;;;;;;8.23;3.60;;;18.20;99.90;;;;;;5069388;28;20479;-72
2022/09/13 08:04:11;;;;;;;8.40;3.33;;;18.30;99.90;;;;;;5062829;28;20049;-72
2022/09/13 08:06:38;;;;;;;11.73;2.80;;;18.30;99.90;;;;;;5055741;28;20136;-76
2022/09/13 08:09:06;;;;;;;8.85;2.50;;;18.40;99.90;;;;;;5054099;28;20048;-74
2022/09/13 08:11:34;;;;;;;10.13;2.35;;;18.30;99.90;;;;;;5055510;28;20047;-72
2022/09/13 08:14:01;;;;;;;9.18;2.53;;;18.30;99.90;;;;;;5065810;28;20048;-75
2022/09/13 08:16:27;;;;;;;6.30;1.98;;;18.40;99.90;;;;;;5051342;28;20041;-72
2022/09/13 08:18:56;;;;;;;2.67;1.77;;;18.40;99.90;;;;;;5051977;28;20183;-74
2022/09/13 08:21:23;;;;;;;9.10;1.90;;;18.30;99.90;;;;;;5067995;28;20033;-71
2022/09/13 08:23:52;;;;;;;8.32;1.92;;;18.30;99.90;;;;;;5052655;28;20571;-74
2022/09/13 08:26:18;;;;;;;7.18;1.58;;;18.30;99.90;;;;;;5047529;28;20044;-77
2022/09/13 08:28:43;;;;;;;5.50;1.88;;;18.40;99.90;;;;;;5024718;28;20036;-71
2022/09/13 08:31:12;;;;;;;5.30;1.67;;;18.50;99.90;;;;;;5045129;28;20045;-72
2022/09/13 08:33:38;;;;;;;6.07;1.80;;;18.50;99.90;;;;;;5056742;28;20053;-75
2022/09/13 08:36:04;;;;;;;9.27;2.50;;;18.60;99.90;;;;;;5033403;28;20710;-73
2022/09/13 08:38:31;;;;;;;8.07;2.25;;;18.50;99.90;;;;;;5055329;28;20533;-69
2022/09/13 08:41:18;;;;;;;7.93;2.47;;;18.50;99.90;;;;;;5056113;28;20043;-74
2022/09/13 08:43:54;;;;;;;6.22;2.28;;;18.60;99.90;;;;;;5027721;28;20051;-75
2022/09/13 08:46:27;;;;;;;8.02;2.22;;;18.70;99.90;;;;;;5049624;28;20036;-71
2022/09/13 08:49:00;;;;;;;6.35;2.25;;;18.70;99.90;;;;;;5038387;28;20514;-74
2022/09/13 08:51:39;;;;;;;12.07;2.00;;;18.70;99.90;;;;;;5043750;28;20086;-74
2022/09/13 08:54:09;;;;;;;8.07;2.00;;;18.60;99.90;;;;;;5044961;28;20028;-70
2022/09/13 08:56:43;;;;;;;8.43;1.80;;;18.50;99.90;;;;;;5070268;28;20041;-70
2022/09/13 08:59:30;;;;;;;10.25;2.40;;;18.50;99.90;;;;;;5052773;28;20041;-71
2022/09/13 09:02:39;;;;;;;10.65;2.33;;;18.80;99.90;;;;;;5045420;28;20048;-74
2022/09/13 09:05:13;;;;;;;4.53;1.70;;;19.00;99.90;;;;;;5040419;28;20041;-72
2022/09/13 09:07:51;;;;;;;8.77;1.90;;;19.20;99.90;;;;;;5049099;28;20053;-72
2022/09/13 09:10:24;;;;;;;6.13;1.90;;;19.20;99.90;;;;;;5049090;28;20032;-73
2022/09/13 09:12:57;;;;;;;6.70;2.00;;;19.00;99.90;;;;;;5047760;28;20059;-73
2022/09/13 09:15:26;;;;;;;3.33;1.63;;;19.00;99.90;;;;;;5034578;28;20052;-70
2022/09/13 09:18:04;;;;;;;5.07;1.80;;;19.10;99.90;;;;;;5027517;28;20049;-73
2022/09/13 09:20:35;;;;;;;7.07;1.70;;;19.30;99.90;;;;;;5047369;28;20495;-75
2022/09/13 09:23:07;;;;;;;5.90;1.50;;;19.30;99.90;;;;;;5047893;28;20495;-74
2022/09/13 09:25:33;;;;;;;5.28;1.77;;;19.30;99.90;;;;;;5049269;28;20128;-71
2022/09/13 09:28:00;;;;;;;5.68;1.45;;;19.40;99.90;;;;;;5055830;28;20457;-70
2022/09/13 09:30:52;;;;;;;5.70;1.50;;;19.40;99.90;;;;;;5055306;28;20483;-73
2022/09/13 09:33:40;;;;;;;5.72;1.60;;;19.30;99.90;;;;;;5045436;28;20116;-75
2022/09/13 09:36:31;;;;;;;6.47;1.67;;;19.30;99.90;;;;;;5060537;28;20063;-71
2022/09/13 09:38:57;;;;;;;3.10;1.02;;;19.40;99.90;;;;;;5064632;28;20040;-72
2022/09/13 09:41:32;;;;;;;4.72;1.40;;;19.50;99.90;;;;;;5047980;28;20075;-70
2022/09/13 09:44:20;;;;;;;5.65;1.75;;;19.60;99.90;;;;;;5044575;28;20531;-72
2022/09/13 09:47:03;;;;;;;2.40;1.50;;;19.70;99.90;;;;;;5025902;28;20053;-71
2022/09/13 09:52:32;;;;;;;3.33;1.35;;;20.10;99.90;;;;;;5042224;28;20072;-72
2022/09/13 09:55:13;;;;;;;3.75;1.20;;;20.20;99.90;;;;;;5054477;28;20069;-72
2022/09/13 09:58:05;;;;;;;6.28;1.67;;;20.20;99.90;;;;;;5028429;28;20069;-73
2022/09/13 10:00:34;;;;;;;3.42;1.30;;;20.10;99.90;;;;;;5056165;28;20477;-70
2022/09/13 10:03:15;;;;;;;1.92;1.20;;;20.00;99.90;;;;;;5051343;28;20521;-69
2022/09/13 10:05:42;;;;;;;4.45;1.30;;;19.80;99.90;;;;;;5049462;28;20376;-70
2022/09/13 10:08:25;;;;;;;6.13;1.38;;;19.60;99.90;;;;;;5049022;28;20045;-71
2022/09/13 10:10:53;;;;;;;4.03;1.25;;;19.50;99.90;;;;;;5049870;28;20495;-72
2022/09/13 10:13:21;;;;;;;3.15;1.17;;;19.50;99.90;;;;;;5051356;28;20051;-68
2022/09/13 10:16:00;;;;;;;3.40;1.00;;;19.70;99.90;;;;;;5052505;28;20040;-69
2022/09/13 10:18:28;;;;;;;4.63;1.30;;;19.90;99.90;;;;;;5051862;28;20076;-68
2022/09/13 10:21:20;;;;;;;3.38;1.30;;;20.00;99.90;;;;;;5052472;28;20037;-72
2022/09/13 10:23:49;;;;;;;3.92;1.42;;;20.20;99.90;;;;;;5033304;28;20041;-68
2022/09/13 10:26:25;;;;;;;3.20;1.10;;;20.20;99.90;;;;;;5037170;28;20041;-73
2022/09/13 10:29:06;;;;;;;7.93;1.30;;;20.10;99.90;;;;;;5064664;28;20542;-70
2022/09/13 10:31:38;;;;;;;2.33;1.20;;;19.90;99.90;;;;;;5048840;28;20056;-73
2022/09/13 10:34:21;;;;;;;4.00;1.23;;;19.60;99.90;;;;;;5052019;28;20037;-69
2022/09/13 10:36:50;;;;;;;5.78;1.30;;;19.30;99.90;;;;;;5051822;28;20100;-69
2022/09/13 10:39:21;;;;;;;4.60;1.20;;;19.40;99.90;;;;;;5038055;28;20037;-69
2022/09/13 10:42:03;;;;;;;2.65;0.95;;;19.60;99.90;;;;;;5047994;28;20044;-70
2022/09/13 10:44:38;;;;;;;4.53;1.10;;;19.70;99.90;;;;;;5024595;28;20467;-70
2022/09/13 10:47:10;;;;;;;2.38;1.10;;;19.90;99.90;;;;;;5061185;28;20045;-73
2022/09/13 10:49:46;;;;;;;3.47;1.03;;;20.10;99.90;;;;;;5051053;28;20056;-73
2022/09/13 10:52:45;;;;;;;2.42;1.30;;;20.30;99.90;;;;;;5043864;28;20757;-71
2022/09/13 10:55:17;;;;;;;5.85;1.15;;;20.30;99.90;;;;;;5058484;28;20090;-73
2022/09/13 10:57:47;;;;;;;3.67;1.13;;;20.10;99.90;;;;;;5050053;28;20041;-70
2022/09/13 11:00:19;;;;;;;3.88;1.30;;;19.80;99.90;;;;;;5050353;28;20044;-69
2022/09/13 11:03:12;;;;;;;4.07;1.10;;;19.70;99.90;;;;;;5047776;28;20041;-72
2022/09/13 11:06:05;;;;;;;2.05;1.02;;;19.80;99.90;;;;;;5052349;28;20032;-70
2022/09/13 11:08:40;;;;;;;3.22;1.38;;;19.90;99.90;;;;;;5051644;28;20436;-67
2022/09/13 11:11:30;;;;;;;4.82;1.00;;;20.00;99.90;;;;;;5053335;28;20517;-67
2022/09/13 11:14:24;;;;;;;1.92;0.93;;;20.00;99.90;;;;;;5042559;28;20422;-68
2022/09/13 11:16:58;;;;;;;6.25;0.90;;;20.10;99.90;;;;;;5049177;28;20044;-67
2022/09/13 11:19:48;;;;;;;6.20;1.00;;;20.20;99.90;;;;;;5055384;28;20048;-71
2022/09/13 11:22:33;;;;;;;4.50;1.00;;;20.20;99.90;;;;;;5048907;28;20041;-73
2022/09/13 11:25:36;;;;;;;3.20;1.00;;;20.20;99.90;;;;;;5050990;28;20049;-70
2022/09/13 11:28:43;;;;;;;5.35;1.30;;;20.10;99.90;;;;;;5047775;28;20131;-67
2022/09/13 11:31:33;;;;;;;6.07;1.40;;;19.90;99.90;;;;;;5029319;28;20129;-72
2022/09/13 11:34:22;;;;;;;2.88;1.02;;;20.00;99.90;;;;;;5045972;28;20041;-68
2022/09/13 11:37:00;;;;;;;3.85;0.90;;;20.10;99.90;;;;;;5048860;28;20452;-68
2022/09/13 11:39:37;;;;;;;7.10;1.02;;;20.00;99.90;;;;;;5047417;28;20048;-68
2022/09/13 11:42:15;;;;;;;5.72;1.20;;;20.00;99.90;;;;;;5057851;28;20083;-70
2022/09/13 11:45:08;;;;;;;10.32;1.20;;;19.90;99.90;;;;;;5049948;28;20037;-69
2022/09/13 11:47:55;;;;;;;5.22;1.00;;;19.90;99.90;;;;;;5061576;28;20037;-68
2022/09/13 11:50:42;;;;;;;2.30;0.93;;;19.90;99.90;;;;;;5048684;28;20065;-69
2022/09/13 11:53:26;;;;;;;7.55;1.27;;;19.80;99.90;;;;;;5020490;28;1048672;-68
2022/09/13 11:56:12;;;;;;;3.35;0.88;;;19.70;99.90;;;;;;5049262;28;20084;-68
2022/09/13 11:58:47;;;;;;;2.53;0.90;;;19.60;99.90;;;;;;5045295;28;20460;-71
2022/09/13 12:01:19;;;;;;;6.35;1.02;;;19.60;99.90;;;;;;5048511;28;20072;-70
2022/09/13 12:04:05;;;;;;;5.75;1.17;;;19.70;99.90;;;;;;5041966;28;20583;-71
2022/09/13 12:06:35;;;;;;;6.32;1.13;;;19.90;99.90;;;;;;5050024;28;20372;-70
2022/09/13 12:09:11;;;;;;;7.45;1.42;;;20.00;99.90;;;;;;5050120;28;20045;-73
2022/09/13 12:11:43;;;;;;;6.72;1.10;;;20.20;99.90;;;;;;5050965;28;20064;-69
2022/09/13 12:14:16;;;;;;;4.22;1.02;;;20.40;99.90;;;;;;5033137;28;20128;-70
2022/09/13 12:16:49;;;;;;;9.52;1.02;;;20.60;99.90;;;;;;5038948;28;20040;-69
2022/09/13 12:19:46;;;;;;;7.13;1.10;;;20.60;99.90;;;;;;5049290;28;20041;-70
2022/09/13 12:22:13;;;;;;;7.22;1.10;;;20.70;99.90;;;;;;5057877;28;20040;-70
2022/09/13 12:24:47;;;;;;;4.15;1.15;;;20.90;99.90;;;;;;5050108;28;20041;-72
2022/09/13 12:27:32;;;;;;;5.57;1.10;;;21.00;99.90;;;;;;5043233;28;20471;-71
2022/09/13 12:30:17;;;;;;;5.25;1.60;;;20.90;99.90;;;;;;5046340;28;20142;-69
2022/09/13 12:32:46;;;;;;;6.22;1.10;;;20.70;99.90;;;;;;5047103;28;20127;-68
2022/09/13 12:35:20;;;;;;;7.15;1.00;;;20.50;99.90;;;;;;5048144;28;20033;-74
2022/09/13 12:37:52;;;;;;;6.20;0.93;;;20.60;99.90;;;;;;5049641;28;20494;-70
2022/09/13 12:40:38;;;;;;;5.78;1.08;;;20.60;99.90;;;;;;5051088;28;20041;-71
2022/09/13 12:43:07;;;;;;;4.30;1.00;;;20.60;99.90;;;;;;5049842;28;20057;-72
2022/09/13 12:45:57;;;;;;;5.43;1.33;;;20.50;99.90;;;;;;5040732;28;20045;-70
2022/09/13 12:48:35;;;;;;;5.32;1.00;;;20.50;99.90;;;;;;5028600;28;20049;-73
2022/09/13 12:51:13;;;;;;;6.53;1.30;;;20.60;99.90;;;;;;5048146;28;20127;-66
2022/09/13 12:53:44;;;;;;;7.43;1.17;;;20.60;99.90;;;;;;5048988;28;20090;-72
2022/09/13 12:56:39;;;;;;;6.73;1.10;;;20.60;99.90;;;;;;5029793;28;20423;-71
2022/09/13 12:59:19;;;;;;;4.05;1.05;;;20.50;99.90;;;;;;5039275;28;20052;-70
2022/09/13 13:01:48;;;;;;;6.25;1.20;;;20.40;99.90;;;;;;5030245;28;20148;-70
2022/09/13 13:04:25;;;;;;;8.05;1.30;;;20.40;99.90;;;;;;5047108;28;20499;-72
2022/09/13 13:07:01;;;;;;;5.47;1.00;;;20.40;99.90;;;;;;5063638;28;20041;-69
2022/09/13 13:09:41;;;;;;;7.45;1.15;;;20.30;99.90;;;;;;5046087;28;20083;-69
2022/09/13 13:12:29;;;;;;;6.03;0.95;;;20.30;99.90;;;;;;5054521;28;20041;-69
2022/09/13 13:14:55;;;;;;;4.53;1.02;;;20.40;99.90;;;;;;5053974;28;20123;-70